Time;durP1;ratioP1;P1;durP2;ratioP2;P2;SDS_P1;SDS_P2;PMS_P1;PMS_P2;Temp;Humidity;BMP_temperature;BMP_pressure;BME280_temperature;BME280_humidity;BME280_pressure;Samples;Min_cycle;Max_cycle;Signal;HPM_P1;HPM_P2
2023/04/09 00:00:45;;;;;;;20.70;13.25;;;10.00;99.90;;;;;;4942176;28;20062;-93
2023/04/09 00:03:11;;;;;;;19.77;13.40;;;10.00;99.90;;;;;;4942100;28;20038;-93
2023/04/09 00:05:41;;;;;;;21.48;13.05;;;10.00;99.90;;;;;;4944757;28;20506;-93
2023/04/09 00:08:08;;;;;;;18.88;12.60;;;10.00;99.90;;;;;;4945417;28;20047;-92
2023/04/09 00:10:35;;;;;;;20.88;12.20;;;10.00;99.90;;;;;;4945625;28;20171;-93
2023/04/09 00:13:01;;;;;;;20.92;12.50;;;10.00;99.90;;;;;;4945435;28;20043;-92
2023/04/09 00:15:28;;;;;;;19.70;11.32;;;10.00;99.90;;;;;;4946263;28;20066;-92
2023/04/09 00:17:55;;;;;;;19.90;12.63;;;10.00;99.90;;;;;;4948137;28;20555;-94
2023/04/09 00:20:21;;;;;;;19.85;12.18;;;10.00;99.90;;;;;;4947659;28;20053;-92
2023/04/09 00:22:49;;;;;;;19.98;11.65;;;10.00;99.90;;;;;;4945371;28;20546;-92
2023/04/09 00:25:16;;;;;;;19.63;11.00;;;10.00;99.90;;;;;;4945127;28;20120;-92
2023/04/09 00:27:42;;;;;;;16.48;11.07;;;10.00;99.90;;;;;;4945902;28;20023;-93
2023/04/09 00:30:10;;;;;;;14.43;9.63;;;10.10;99.90;;;;;;4960851;28;20085;-92
2023/04/09 00:32:36;;;;;;;18.88;8.50;;;10.30;99.90;;;;;;4949514;28;20019;-92
2023/04/09 00:35:04;;;;;;;12.40;8.25;;;10.40;99.90;;;;;;4967256;28;20027;-92
2023/04/09 00:37:30;;;;;;;7.47;6.00;;;10.50;99.90;;;;;;4948585;28;20027;-92
2023/04/09 00:39:57;;;;;;;9.25;6.45;;;10.50;99.90;;;;;;4960781;28;20031;-92
2023/04/09 00:42:25;;;;;;;8.55;5.88;;;10.40;99.90;;;;;;4944749;28;20027;-93
2023/04/09 00:44:52;;;;;;;7.97;6.45;;;10.40;99.90;;;;;;4960792;28;20030;-93
2023/04/09 00:47:19;;;;;;;7.50;6.80;;;10.30;99.90;;;;;;4944383;28;20082;-91
2023/04/09 00:49:47;;;;;;;7.45;6.75;;;10.20;99.90;;;;;;4960642;28;20077;-93
2023/04/09 00:52:13;;;;;;;7.78;7.18;;;10.20;99.90;;;;;;4944622;28;20030;-93
2023/04/09 00:54:40;;;;;;;9.15;7.75;;;10.30;99.90;;;;;;4960558;28;20031;-93
2023/04/09 00:57:07;;;;;;;10.70;6.90;;;10.20;99.90;;;;;;4944387;28;20022;-92
2023/04/09 00:59:34;;;;;;;13.38;7.45;;;10.20;99.90;;;;;;4944410;28;20508;-92
2023/04/09 01:02:00;;;;;;;21.90;13.05;;;10.10;99.90;;;;;;4944436;28;20031;-92
2023/04/09 01:04:27;;;;;;;16.83;12.57;;;10.00;99.90;;;;;;4944446;28;20057;-92
2023/04/09 01:07:41;;;;;;;13.23;11.80;;;9.70;99.90;;;;;;4950414;28;20034;-92
2023/04/09 01:10:27;;;;;;;14.43;11.60;;;9.60;99.90;;;;;;4960762;28;20035;-95
2023/04/09 01:13:00;;;;;;;12.85;11.43;;;9.60;99.90;;;;;;4944203;28;20085;-92
2023/04/09 01:15:32;;;;;;;14.20;12.75;;;9.50;99.90;;;;;;4943307;28;20038;-92
2023/04/09 01:18:06;;;;;;;11.43;10.45;;;9.60;99.90;;;;;;4960032;28;20034;-93
2023/04/09 01:20:41;;;;;;;13.05;10.80;;;9.50;99.90;;;;;;4960071;28;20130;-92
2023/04/09 01:23:46;;;;;;;14.38;11.48;;;9.50;99.90;;;;;;4951414;28;20488;-92
2023/04/09 01:26:45;;;;;;;11.63;10.52;;;9.50;99.90;;;;;;4972156;28;20054;-93
2023/04/09 01:29:14;;;;;;;12.18;9.32;;;9.50;99.90;;;;;;4944750;28;20034;-92
2023/04/09 01:31:43;;;;;;;10.18;9.07;;;9.50;99.90;;;;;;4944711;28;20051;-92
2023/04/09 01:34:10;;;;;;;11.15;8.85;;;9.50;99.90;;;;;;4944876;28;20038;-91
2023/04/09 01:36:40;;;;;;;9.65;8.70;;;9.50;99.90;;;;;;4945453;28;20034;-92
2023/04/09 01:39:07;;;;;;;12.50;8.70;;;9.50;99.90;;;;;;4963456;28;20027;-91
2023/04/09 01:41:36;;;;;;;12.18;8.63;;;9.50;99.90;;;;;;4943978;29;20067;-92
2023/04/09 01:44:04;;;;;;;11.27;9.18;;;9.50;99.90;;;;;;4940499;29;20028;-92
2023/04/09 01:46:34;;;;;;;10.45;8.63;;;9.50;99.90;;;;;;4941779;28;20500;-92
2023/04/09 01:49:02;;;;;;;10.65;8.05;;;9.60;99.90;;;;;;4959718;28;20035;-92
2023/04/09 01:51:33;;;;;;;10.98;7.28;;;9.50;99.90;;;;;;4943095;28;20031;-93
2023/04/09 01:54:04;;;;;;;7.57;6.80;;;9.40;99.90;;;;;;4958803;28;20638;-92
2023/04/09 01:56:44;;;;;;;8.02;7.22;;;9.30;99.90;;;;;;4926887;28;20485;-92
2023/04/09 01:59:11;;;;;;;7.60;6.90;;;9.30;99.90;;;;;;4958543;28;20042;-93
2023/04/09 02:01:48;;;;;;;9.15;6.88;;;9.30;99.90;;;;;;4958586;28;20039;-92
2023/04/09 02:04:40;;;;;;;7.93;5.85;;;9.20;99.90;;;;;;4958405;28;20050;-92
2023/04/09 02:07:33;;;;;;;6.60;5.65;;;9.20;99.90;;;;;;4947212;28;20015;-92
2023/04/09 02:10:00;;;;;;;6.70;6.10;;;9.10;99.90;;;;;;4955849;28;20031;-91
2023/04/09 02:12:30;;;;;;;6.43;5.82;;;9.10;99.90;;;;;;4944650;29;20031;-92
2023/04/09 02:15:00;;;;;;;6.47;5.95;;;9.10;99.90;;;;;;4923246;29;20042;-93
2023/04/09 02:17:27;;;;;;;6.90;6.13;;;9.10;99.90;;;;;;4923153;29;20028;-92
2023/04/09 02:19:54;;;;;;;8.57;5.85;;;9.10;99.90;;;;;;4923176;29;20101;-92
2023/04/09 02:22:21;;;;;;;6.03;5.50;;;9.10;99.90;;;;;;4923494;29;20027;-93
2023/04/09 02:24:48;;;;;;;7.18;5.70;;;9.10;99.90;;;;;;4923159;29;20066;-92
2023/04/09 02:27:15;;;;;;;5.88;5.35;;;9.10;99.90;;;;;;4922709;29;20019;-93
2023/04/09 02:29:43;;;;;;;6.75;5.57;;;9.10;99.90;;;;;;4923170;29;20126;-93
2023/04/09 02:32:12;;;;;;;7.10;5.70;;;9.00;99.90;;;;;;4923411;29;20098;-94
2023/04/09 02:34:45;;;;;;;8.38;5.50;;;9.00;99.90;;;;;;4923015;29;20031;-91
2023/04/09 02:37:11;;;;;;;6.22;5.63;;;9.00;99.90;;;;;;4922965;29;20038;-92
2023/04/09 02:39:38;;;;;;;6.40;5.90;;;9.00;99.90;;;;;;4922841;29;20082;-93
2023/04/09 02:42:06;;;;;;;6.28;5.78;;;9.00;99.90;;;;;;4922737;29;20118;-92
2023/04/09 02:44:33;;;;;;;6.57;5.95;;;9.00;99.90;;;;;;4922797;29;20023;-93
2023/04/09 02:47:00;;;;;;;7.35;6.22;;;9.00;99.90;;;;;;4867129;29;1640677;-92
2023/04/09 02:49:26;;;;;;;6.90;6.20;;;9.00;99.90;;;;;;4923435;29;20031;-92
2023/04/09 02:51:53;;;;;;;7.20;6.60;;;9.00;99.90;;;;;;4923471;29;20031;-92
2023/04/09 02:54:19;;;;;;;7.93;7.13;;;9.10;99.90;;;;;;4923547;29;20027;-92
2023/04/09 02:56:46;;;;;;;10.05;6.93;;;9.10;99.90;;;;;;4923805;29;20031;-92
2023/04/09 02:59:12;;;;;;;11.50;8.25;;;9.20;99.90;;;;;;4931405;29;20042;-91
2023/04/09 03:01:39;;;;;;;13.82;7.75;;;9.20;99.90;;;;;;4957177;29;20047;-92
2023/04/09 03:04:05;;;;;;;9.02;7.63;;;9.30;99.90;;;;;;4943824;28;20035;-92
2023/04/09 03:06:32;;;;;;;8.80;7.90;;;9.30;99.90;;;;;;4939435;29;20027;-93
2023/04/09 03:08:58;;;;;;;9.35;7.30;;;9.30;99.90;;;;;;4939436;29;20023;-92
2023/04/09 03:11:25;;;;;;;8.48;7.68;;;9.30;99.90;;;;;;4939551;29;20034;-92
2023/04/09 03:13:51;;;;;;;12.15;7.80;;;9.30;99.90;;;;;;4939478;29;20114;-91
2023/04/09 03:16:18;;;;;;;9.98;6.47;;;9.40;99.90;;;;;;4939655;29;20035;-92
2023/04/09 03:18:45;;;;;;;9.02;7.00;;;9.50;99.90;;;;;;4939878;29;20027;-92
2023/04/09 03:21:11;;;;;;;7.45;6.20;;;9.60;99.90;;;;;;4940155;29;20040;-92
2023/04/09 03:23:44;;;;;;;10.13;6.88;;;9.70;99.90;;;;;;4940028;29;20024;-92
2023/04/09 03:26:11;;;;;;;12.60;6.82;;;9.70;99.90;;;;;;4939791;29;20493;-93
2023/04/09 03:28:45;;;;;;;12.43;7.30;;;9.70;99.90;;;;;;4939700;29;20027;-94
2023/04/09 03:31:12;;;;;;;9.18;7.00;;;9.70;99.90;;;;;;4939710;29;20039;-92
2023/04/09 03:33:41;;;;;;;15.27;7.63;;;9.70;99.90;;;;;;4939209;29;20469;-93
2023/04/09 03:36:09;;;;;;;8.90;6.82;;;9.70;99.90;;;;;;4938877;29;20106;-92
2023/04/09 03:38:52;;;;;;;9.73;6.90;;;9.80;99.90;;;;;;4939604;29;20034;-93
2023/04/09 03:41:31;;;;;;;8.15;6.90;;;9.80;99.90;;;;;;4958703;29;20039;-92
2023/04/09 03:44:01;;;;;;;13.83;7.03;;;9.80;99.90;;;;;;4954164;29;20031;-93
2023/04/09 03:46:33;;;;;;;8.52;6.57;;;9.80;99.90;;;;;;4958551;28;20051;-93
2023/04/09 03:49:01;;;;;;;8.07;6.45;;;9.80;99.90;;;;;;4962194;28;20407;-91
2023/04/09 03:51:36;;;;;;;7.95;6.35;;;9.80;99.90;;;;;;4961671;28;20031;-93
2023/04/09 03:54:03;;;;;;;8.30;5.80;;;9.80;99.90;;;;;;4961492;28;20031;-92
2023/04/09 03:56:30;;;;;;;7.55;6.20;;;9.70;99.90;;;;;;4961552;28;20090;-92
2023/04/09 03:58:57;;;;;;;9.93;6.50;;;9.70;99.90;;;;;;4961483;28;20034;-93
2023/04/09 04:01:33;;;;;;;8.57;6.38;;;9.60;99.90;;;;;;4946812;28;20399;-92
2023/04/09 04:04:01;;;;;;;11.38;6.70;;;9.60;99.90;;;;;;4961802;28;20480;-93
2023/04/09 04:06:34;;;;;;;12.18;6.55;;;9.60;99.90;;;;;;4961442;28;20035;-93
2023/04/09 04:09:21;;;;;;;8.88;5.07;;;9.70;99.90;;;;;;4961307;28;20062;-92
2023/04/09 04:11:54;;;;;;;11.07;5.57;;;9.70;99.90;;;;;;4961202;28;20042;-93
2023/04/09 04:14:24;;;;;;;11.25;5.53;;;9.70;99.90;;;;;;4961189;28;20035;-92
2023/04/09 04:16:57;;;;;;;9.40;5.70;;;9.70;99.90;;;;;;4961231;28;20427;-92
2023/04/09 04:19:28;;;;;;;8.18;5.97;;;9.80;99.90;;;;;;4961109;28;20042;-92
2023/04/09 04:21:55;;;;;;;6.60;5.57;;;9.70;99.90;;;;;;4961264;28;20125;-91
2023/04/09 04:24:22;;;;;;;8.73;5.03;;;9.70;99.90;;;;;;4960964;28;20089;-92
2023/04/09 04:26:49;;;;;;;11.65;5.68;;;9.70;99.90;;;;;;4945028;28;20404;-93
2023/04/09 04:29:18;;;;;;;12.50;5.70;;;9.70;99.90;;;;;;4961071;28;20388;-93
2023/04/09 04:32:05;;;;;;;9.35;5.40;;;9.70;99.90;;;;;;4947739;28;20031;-91
2023/04/09 04:34:36;;;;;;;9.93;5.60;;;9.70;99.90;;;;;;4974813;28;20051;-92
2023/04/09 04:37:13;;;;;;;10.23;5.68;;;9.60;99.90;;;;;;4971611;28;20519;-93
2023/04/09 04:39:39;;;;;;;11.32;6.13;;;9.70;99.90;;;;;;4960767;28;20495;-92
2023/04/09 04:42:10;;;;;;;18.27;5.85;;;9.70;99.90;;;;;;4960981;28;20048;-92
2023/04/09 04:44:37;;;;;;;9.98;5.75;;;9.80;99.90;;;;;;4960898;28;20034;-92
2023/04/09 04:47:16;;;;;;;11.77;5.80;;;9.80;99.90;;;;;;4960520;28;20078;-92
2023/04/09 04:49:42;;;;;;;10.88;5.93;;;9.80;99.90;;;;;;4960866;28;20027;-92
2023/04/09 04:52:10;;;;;;;10.10;6.00;;;9.80;99.90;;;;;;4960547;28;20118;-92
2023/04/09 04:54:43;;;;;;;18.92;6.32;;;9.80;99.90;;;;;;4962883;28;20026;-93
2023/04/09 04:57:15;;;;;;;14.32;6.80;;;9.80;99.90;;;;;;4963892;28;20163;-93
2023/04/09 04:59:42;;;;;;;20.10;6.88;;;9.80;99.90;;;;;;4960935;28;20031;-92
2023/04/09 05:02:11;;;;;;;17.05;6.93;;;9.80;99.90;;;;;;4960787;28;20034;-91
2023/04/09 05:05:04;;;;;;;19.60;6.70;;;9.80;99.90;;;;;;4964169;28;20039;-91
2023/04/09 05:07:37;;;;;;;10.63;6.68;;;9.80;99.90;;;;;;4960561;28;20046;-92
2023/04/09 05:10:05;;;;;;;16.90;6.57;;;9.70;99.90;;;;;;4960642;28;20038;-92
2023/04/09 05:12:37;;;;;;;17.63;6.57;;;9.80;99.90;;;;;;4960573;28;20023;-92
2023/04/09 05:15:05;;;;;;;14.93;6.18;;;9.90;99.90;;;;;;4960537;28;20114;-91
2023/04/09 05:17:32;;;;;;;14.15;5.85;;;9.90;99.90;;;;;;4970689;28;20079;-93
2023/04/09 05:20:00;;;;;;;17.50;6.80;;;9.90;99.90;;;;;;4975899;28;20106;-93
2023/04/09 05:22:35;;;;;;;14.45;6.70;;;9.80;99.90;;;;;;4961517;28;20027;-92
2023/04/09 05:25:03;;;;;;;15.18;5.75;;;9.80;99.90;;;;;;4959832;28;20037;-92
2023/04/09 05:27:30;;;;;;;16.13;5.20;;;9.90;99.90;;;;;;4959972;28;20031;-93
2023/04/09 05:30:00;;;;;;;12.05;4.90;;;9.90;99.90;;;;;;4959938;28;20373;-92
2023/04/09 05:32:27;;;;;;;15.32;5.47;;;10.00;99.90;;;;;;4960117;28;20117;-92
2023/04/09 05:34:54;;;;;;;11.77;5.93;;;10.00;99.90;;;;;;4972672;28;20054;-93
2023/04/09 05:37:21;;;;;;;11.90;5.90;;;10.10;99.90;;;;;;4960998;28;20050;-92
2023/04/09 05:39:51;;;;;;;14.48;5.30;;;10.20;99.90;;;;;;4961017;28;20027;-92
2023/04/09 05:42:17;;;;;;;11.90;4.80;;;10.30;99.90;;;;;;4963517;28;20043;-92
2023/04/09 05:45:08;;;;;;;11.75;4.50;;;10.80;99.90;;;;;;4960025;28;20027;-92
2023/04/09 05:47:35;;;;;;;9.07;5.50;;;11.00;99.90;;;;;;4959490;28;20055;-93
2023/04/09 05:50:07;;;;;;;14.30;4.70;;;10.90;99.90;;;;;;4944969;28;20085;-93
2023/04/09 05:52:34;;;;;;;8.68;5.07;;;10.90;99.90;;;;;;4964121;28;20117;-94
2023/04/09 05:55:04;;;;;;;11.77;4.65;;;11.10;99.90;;;;;;4971574;28;20030;-93
2023/04/09 05:57:42;;;;;;;15.13;5.63;;;11.30;99.90;;;;;;4964647;28;20369;-91
2023/04/09 06:00:09;;;;;;;8.20;5.40;;;11.70;99.90;;;;;;4942615;28;20035;-92
2023/04/09 06:02:45;;;;;;;10.38;5.75;;;11.70;99.90;;;;;;4958694;28;20027;-93
2023/04/09 06:05:11;;;;;;;11.35;6.97;;;11.60;99.90;;;;;;4959544;28;20027;-92
2023/04/09 06:07:38;;;;;;;18.65;7.10;;;11.60;99.90;;;;;;4936230;29;20027;-93
2023/04/09 06:10:05;;;;;;;13.35;6.95;;;11.50;99.90;;;;;;4904443;29;20490;-93
2023/04/09 06:12:35;;;;;;;11.90;7.93;;;11.40;99.90;;;;;;4905545;29;20083;-94
2023/04/09 06:15:05;;;;;;;14.85;7.60;;;11.40;99.90;;;;;;4920963;29;20040;-93
2023/04/09 06:17:32;;;;;;;13.52;7.10;;;11.60;99.90;;;;;;4920387;29;20039;-93
2023/04/09 06:20:06;;;;;;;19.00;7.57;;;11.80;99.90;;;;;;4904245;29;20028;-94
2023/04/09 06:22:33;;;;;;;12.15;7.15;;;12.00;99.90;;;;;;4920141;29;20035;-93
2023/04/09 06:25:01;;;;;;;12.63;7.10;;;12.10;99.90;;;;;;4904604;29;20401;-94
2023/04/09 06:27:30;;;;;;;10.85;7.03;;;12.40;99.90;;;;;;4904268;29;20134;-93
2023/04/09 06:29:57;;;;;;;10.15;6.75;;;12.70;99.90;;;;;;4904668;29;20106;-93
2023/04/09 06:32:24;;;;;;;10.15;7.95;;;13.20;99.90;;;;;;4920275;29;20489;-93
2023/04/09 06:40:16;;;;;;;83.93;53.45;;;13.50;99.90;;;;;;5978652;23;20304;-92
2023/04/09 06:42:43;;;;;;;17.25;12.55;;;13.70;99.90;;;;;;4940832;29;20039;-84
2023/04/09 06:45:18;;;;;;;14.05;9.52;;;13.80;99.90;;;;;;4958027;28;20121;-83
2023/04/09 06:47:45;;;;;;;14.07;10.00;;;13.90;99.90;;;;;;4942344;28;20476;-85
2023/04/09 06:50:11;;;;;;;10.32;9.40;;;14.00;99.90;;;;;;4958583;28;20046;-86
2023/04/09 06:52:37;;;;;;;16.35;14.45;;;14.20;99.90;;;;;;4939069;29;20481;-86
2023/04/09 06:55:04;;;;;;;13.95;12.45;;;14.50;99.90;;;;;;4939024;29;20544;-85
2023/04/09 06:57:30;;;;;;;13.82;12.70;;;14.70;99.90;;;;;;4923432;29;20452;-87
2023/04/09 06:59:57;;;;;;;14.73;13.02;;;15.40;99.90;;;;;;4939167;28;20400;-87
2023/04/09 07:02:23;;;;;;;15.18;13.93;;;16.00;99.90;;;;;;4939224;29;20027;-85
2023/04/09 07:04:50;;;;;;;18.48;16.17;;;16.00;99.90;;;;;;4955025;29;20078;-87
2023/04/09 07:07:17;;;;;;;15.85;14.48;;;16.60;99.90;;;;;;4939121;29;20031;-86
2023/04/09 07:17:49;;;;;;;20.35;18.73;;;18.70;99.90;;;;;;5026820;23;20154;-90
2023/04/09 07:20:16;;;;;;;21.15;19.08;;;18.90;99.90;;;;;;4947332;28;20035;-91
2023/04/09 07:22:42;;;;;;;20.33;18.50;;;19.20;99.90;;;;;;4946532;28;20547;-93
2023/04/09 07:25:09;;;;;;;20.73;19.08;;;19.50;99.90;;;;;;4924363;29;20032;-94
2023/04/09 07:27:36;;;;;;;21.50;19.25;;;19.60;99.90;;;;;;4923785;29;20123;-93
2023/04/09 07:30:03;;;;;;;19.90;18.05;;;18.40;99.90;;;;;;4923356;29;20043;-92
2023/04/09 07:32:30;;;;;;;19.55;17.90;;;17.70;99.90;;;;;;4923098;29;20034;-94
2023/04/09 07:34:58;;;;;;;19.55;17.65;;;17.20;99.90;;;;;;4923282;29;20040;-93
2023/04/09 07:37:25;;;;;;;21.10;19.10;;;17.00;99.90;;;;;;4923080;29;20051;-91
2023/04/09 07:39:53;;;;;;;22.27;19.67;;;17.60;99.90;;;;;;5121325;23;20026;-84
2023/04/09 07:42:20;;;;;;;19.90;18.25;;;18.30;99.90;;;;;;4954294;29;20042;-92
2023/04/09 07:44:47;;;;;;;22.10;19.08;;;18.70;99.90;;;;;;4944324;29;20031;-91
2023/04/09 07:47:14;;;;;;;20.42;18.80;;;18.90;99.90;;;;;;4959648;28;20507;-92
2023/04/09 07:49:40;;;;;;;20.00;18.52;;;19.40;99.90;;;;;;4948968;28;20042;-90
2023/04/09 07:52:07;;;;;;;20.40;18.90;;;19.90;99.90;;;;;;4946878;28;20026;-92
2023/04/09 07:54:35;;;;;;;20.33;18.67;;;20.10;99.90;;;;;;4944277;28;20035;-90
2023/04/09 07:57:02;;;;;;;21.48;19.27;;;19.80;99.90;;;;;;4950677;28;20038;-89
2023/04/09 07:59:35;;;;;;;20.70;18.52;;;19.40;99.90;;;;;;4945561;28;20050;-85
2023/04/09 08:02:07;;;;;;;20.27;18.70;;;18.90;99.90;;;;;;4960676;28;20042;-85
2023/04/09 08:04:38;;;;;;;20.42;18.80;;;18.30;99.90;;;;;;4960770;28;20027;-86
2023/04/09 08:07:10;;;;;;;19.33;17.80;;;17.70;99.90;;;;;;4944808;28;20030;-89
2023/04/09 08:09:38;;;;;;;19.15;17.55;;;17.40;99.90;;;;;;4945090;28;20093;-83
2023/04/09 08:12:05;;;;;;;19.50;17.60;;;16.90;99.90;;;;;;4978701;28;20065;-89
2023/04/09 08:14:31;;;;;;;21.45;18.70;;;16.50;99.90;;;;;;4946737;28;20058;-86
2023/04/09 08:16:58;;;;;;;19.35;17.80;;;16.10;99.90;;;;;;4945446;28;20027;-88
2023/04/09 08:19:24;;;;;;;17.63;16.13;;;16.00;99.90;;;;;;4945463;28;20027;-87
2023/04/09 08:21:51;;;;;;;17.70;16.27;;;16.00;99.90;;;;;;4945515;28;20035;-84
2023/04/09 08:24:21;;;;;;;18.90;17.15;;;16.00;99.90;;;;;;4944036;28;20031;-85
2023/04/09 08:26:47;;;;;;;18.90;17.20;;;16.40;99.90;;;;;;4944180;28;20031;-84
2023/04/09 08:29:14;;;;;;;18.58;17.35;;;16.70;99.90;;;;;;4944666;28;20023;-84
2023/04/09 08:31:41;;;;;;;19.05;17.70;;;17.00;99.90;;;;;;4944801;28;20042;-84
2023/04/09 08:34:07;;;;;;;19.73;18.13;;;17.50;99.90;;;;;;4944556;28;20033;-85
2023/04/09 08:36:34;;;;;;;20.30;18.90;;;17.80;99.90;;;;;;4944046;28;20045;-84
2023/04/09 08:39:03;;;;;;;20.00;18.50;;;18.40;99.90;;;;;;4944331;28;20508;-84
2023/04/09 08:41:29;;;;;;;19.80;18.58;;;19.10;99.90;;;;;;4943716;28;20407;-84
2023/04/09 08:43:57;;;;;;;19.92;18.55;;;19.30;99.90;;;;;;4944085;28;20114;-84
2023/04/09 08:46:24;;;;;;;20.65;19.05;;;19.10;99.90;;;;;;4944188;28;20074;-85
2023/04/09 08:48:51;;;;;;;20.30;18.60;;;19.40;99.90;;;;;;4944119;28;20019;-84
2023/04/09 08:51:20;;;;;;;20.05;18.65;;;19.60;99.90;;;;;;4959122;28;20118;-84
2023/04/09 08:53:52;;;;;;;19.95;18.25;;;19.90;99.90;;;;;;4959711;28;20027;-83
2023/04/09 08:56:20;;;;;;;20.08;18.63;;;20.10;99.90;;;;;;4943658;28;20069;-85
2023/04/09 08:58:47;;;;;;;19.70;18.45;;;19.90;99.90;;;;;;4959516;28;20029;-85
2023/04/09 09:01:28;;;;;;;19.70;18.30;;;19.80;99.90;;;;;;4959525;28;20403;-83
2023/04/09 09:04:05;;;;;;;20.13;18.83;;;19.80;99.90;;;;;;4976798;28;20035;-83
2023/04/09 09:06:37;;;;;;;19.98;18.77;;;19.80;99.90;;;;;;4943685;28;20031;-84
2023/04/09 09:09:15;;;;;;;21.10;19.85;;;19.90;99.90;;;;;;4943654;28;20038;-84
2023/04/09 09:11:49;;;;;;;20.38;19.27;;;19.80;99.90;;;;;;4943619;28;20094;-84
2023/04/09 09:14:18;;;;;;;20.70;19.40;;;19.60;99.90;;;;;;4959474;28;20031;-84
2023/04/09 09:16:56;;;;;;;20.85;19.55;;;19.70;99.90;;;;;;4959361;28;20121;-84
2023/04/09 09:19:26;;;;;;;20.50;19.20;;;19.80;99.90;;;;;;4943457;28;20480;-85
2023/04/09 09:22:00;;;;;;;20.05;18.95;;;19.60;99.90;;;;;;4943486;28;20038;-85
2023/04/09 09:24:27;;;;;;;20.13;18.98;;;19.50;99.90;;;;;;4944058;28;20034;-84
2023/04/09 09:26:54;;;;;;;20.02;18.90;;;19.30;99.90;;;;;;4943307;28;20031;-84
2023/04/09 09:29:21;;;;;;;20.75;19.58;;;19.70;99.90;;;;;;4943332;28;20136;-84
2023/04/09 09:31:50;;;;;;;21.52;19.88;;;19.80;99.90;;;;;;4943340;28;20399;-85
2023/04/09 09:34:18;;;;;;;21.33;19.92;;;19.40;99.90;;;;;;4943468;28;20026;-84
2023/04/09 09:36:49;;;;;;;21.75;20.35;;;18.90;99.90;;;;;;4943732;28;20046;-92
2023/04/09 09:39:16;;;;;;;21.20;19.63;;;18.70;99.90;;;;;;4947527;28;20031;-89
2023/04/09 09:41:44;;;;;;;20.55;19.25;;;18.30;99.90;;;;;;4965735;28;20047;-89
2023/04/09 09:44:12;;;;;;;19.85;18.65;;;17.90;99.90;;;;;;4946876;28;20035;-92
2023/04/09 09:46:41;;;;;;;19.77;18.58;;;17.60;99.90;;;;;;4944589;28;20058;-92
2023/04/09 09:49:08;;;;;;;20.27;19.02;;;17.50;99.90;;;;;;4943997;28;20361;-91
2023/04/09 09:51:40;;;;;;;19.65;18.55;;;17.30;99.90;;;;;;4946769;28;20023;-92
2023/04/09 09:54:09;;;;;;;19.42;18.13;;;17.40;99.90;;;;;;4964828;28;20046;-92
2023/04/09 09:56:38;;;;;;;19.58;18.33;;;17.50;99.90;;;;;;4951329;28;20532;-92
2023/04/09 09:59:04;;;;;;;21.27;19.35;;;17.50;99.90;;;;;;4945990;28;20046;-91
2023/04/09 10:01:34;;;;;;;20.30;19.10;;;17.60;99.90;;;;;;4951143;28;20089;-92
2023/04/09 10:04:03;;;;;;;27.13;24.48;;;17.40;99.90;;;;;;4946254;28;20027;-92
2023/04/09 10:06:32;;;;;;;30.52;27.83;;;17.50;99.90;;;;;;4943248;28;20121;-91
2023/04/09 10:09:05;;;;;;;26.33;24.35;;;17.70;99.90;;;;;;4943064;28;20027;-89
2023/04/09 10:11:35;;;;;;;20.65;19.45;;;18.10;99.90;;;;;;4943185;28;20037;-91
2023/04/09 10:14:04;;;;;;;21.48;20.27;;;18.30;99.90;;;;;;4943024;28;20404;-90
2023/04/09 10:16:30;;;;;;;20.98;19.60;;;18.10;99.90;;;;;;4942799;28;20031;-90
2023/04/09 10:18:58;;;;;;;20.45;19.15;;;18.00;99.90;;;;;;4942967;28;20030;-90
2023/04/09 10:21:46;;;;;;;20.33;19.00;;;18.10;99.90;;;;;;4942808;28;20031;-91
2023/04/09 10:24:14;;;;;;;21.50;19.90;;;18.00;99.90;;;;;;4943058;28;20130;-91
2023/04/09 10:26:45;;;;;;;22.75;21.15;;;17.90;99.90;;;;;;4943469;28;20031;-89
2023/04/09 10:29:14;;;;;;;22.00;20.58;;;17.80;99.90;;;;;;4942973;28;20093;-91
2023/04/09 10:32:05;;;;;;;21.10;19.90;;;17.70;99.90;;;;;;4943154;28;20057;-89
2023/04/09 10:34:58;;;;;;;20.77;19.30;;;17.50;99.90;;;;;;4943017;28;20030;-91
2023/04/09 10:37:26;;;;;;;20.30;19.15;;;17.30;99.90;;;;;;4935712;29;20067;-90
2023/04/09 10:39:53;;;;;;;20.52;19.33;;;17.30;99.90;;;;;;4935693;29;20444;-91
2023/04/09 10:42:26;;;;;;;19.95;18.70;;;17.50;99.90;;;;;;4920961;29;20138;-90
2023/04/09 10:45:07;;;;;;;20.40;19.30;;;17.80;99.90;;;;;;4921013;29;20030;-90
2023/04/09 10:47:37;;;;;;;20.70;19.50;;;17.90;99.90;;;;;;4921617;29;20155;-91
2023/04/09 10:50:31;;;;;;;20.30;19.05;;;18.30;99.90;;;;;;4904667;29;20497;-92
2023/04/09 10:53:01;;;;;;;21.08;19.88;;;18.60;99.90;;;;;;4903849;29;20035;-92
2023/04/09 10:55:38;;;;;;;19.85;18.75;;;18.80;99.90;;;;;;4903765;29;20032;-92
2023/04/09 10:58:11;;;;;;;20.00;19.00;;;18.90;99.90;;;;;;4904290;29;20100;-90
2023/04/09 11:00:42;;;;;;;20.60;19.40;;;18.60;99.90;;;;;;4903738;29;20059;-89
2023/04/09 11:03:24;;;;;;;20.10;18.90;;;18.60;99.90;;;;;;4903913;29;20043;-92
2023/04/09 11:05:54;;;;;;;19.80;18.70;;;18.50;99.90;;;;;;4904095;29;20103;-90
2023/04/09 11:08:21;;;;;;;21.55;20.25;;;18.60;99.90;;;;;;4904274;29;20055;-92
2023/04/09 11:10:48;;;;;;;23.80;22.10;;;18.40;99.90;;;;;;4904225;29;20028;-92
2023/04/09 11:13:17;;;;;;;22.13;20.63;;;18.60;99.90;;;;;;4921209;28;20073;-90
2023/04/09 11:15:46;;;;;;;22.98;21.38;;;19.00;99.90;;;;;;4974807;28;20089;-91
2023/04/09 11:18:26;;;;;;;22.42;20.80;;;19.20;99.90;;;;;;4958765;28;20023;-92
2023/04/09 11:21:06;;;;;;;24.70;22.80;;;19.10;99.90;;;;;;4975497;28;20392;-90
2023/04/09 11:23:33;;;;;;;23.13;21.50;;;18.90;99.90;;;;;;4974501;28;20135;-91
2023/04/09 11:26:00;;;;;;;26.23;24.05;;;18.80;99.90;;;;;;4975494;28;20038;-90
2023/04/09 11:28:27;;;;;;;23.23;21.52;;;18.90;99.90;;;;;;4981502;28;20018;-90
2023/04/09 11:30:53;;;;;;;22.27;20.77;;;19.20;99.90;;;;;;4954464;28;20345;-91
2023/04/09 11:33:20;;;;;;;21.42;19.92;;;19.40;99.90;;;;;;4943989;28;20054;-91
2023/04/09 11:35:47;;;;;;;20.67;19.35;;;19.40;99.90;;;;;;4942194;28;20391;-90
2023/04/09 11:38:14;;;;;;;26.38;23.92;;;19.10;99.90;;;;;;4941815;28;20030;-91
2023/04/09 11:40:48;;;;;;;23.70;21.85;;;18.90;99.90;;;;;;4941696;28;20073;-90
2023/04/09 11:43:15;;;;;;;26.95;24.67;;;18.90;99.90;;;;;;4941988;28;20030;-93
2023/04/09 11:45:43;;;;;;;25.63;23.38;;;19.00;99.90;;;;;;4942190;28;20039;-88
2023/04/09 11:48:10;;;;;;;21.17;19.98;;;19.20;99.90;;;;;;4942050;28;20035;-90
2023/04/09 11:50:37;;;;;;;21.00;19.60;;;19.20;99.90;;;;;;4941782;28;20030;-92
2023/04/09 11:53:20;;;;;;;20.80;19.60;;;18.90;99.90;;;;;;4946645;28;20488;-91
2023/04/09 11:55:51;;;;;;;20.73;19.42;;;18.80;99.90;;;;;;4958119;28;20090;-91
2023/04/09 11:58:25;;;;;;;20.95;19.55;;;19.20;99.90;;;;;;4941671;28;20031;-90
2023/04/09 12:00:57;;;;;;;20.83;19.57;;;19.50;99.90;;;;;;4943368;28;20042;-91
2023/04/09 12:03:29;;;;;;;20.55;19.33;;;19.70;99.90;;;;;;4945498;28;20082;-92
2023/04/09 12:05:58;;;;;;;20.13;18.92;;;19.40;99.90;;;;;;4945539;28;20034;-91
2023/04/09 12:08:27;;;;;;;20.40;19.30;;;19.20;99.90;;;;;;4945321;28;20022;-90
2023/04/09 12:10:53;;;;;;;21.38;19.90;;;18.80;99.90;;;;;;4945087;28;20038;-90
2023/04/09 12:17:01;;;;;;;19.85;18.70;;;18.20;99.90;;;;;;4978604;28;20141;-85
2023/04/09 12:19:28;;;;;;;20.08;18.63;;;18.00;99.90;;;;;;4944959;28;20094;-91
2023/04/09 12:21:57;;;;;;;20.17;18.95;;;17.80;99.90;;;;;;4961176;28;20041;-88
2023/04/09 12:24:25;;;;;;;20.67;19.27;;;17.80;99.90;;;;;;4945098;28;20117;-88
2023/04/09 12:26:52;;;;;;;20.30;19.05;;;18.10;99.90;;;;;;4945105;28;20082;-88
2023/04/09 12:29:20;;;;;;;22.30;20.50;;;18.20;99.90;;;;;;4943349;28;20031;-89
2023/04/09 12:31:49;;;;;;;25.10;23.00;;;18.40;99.90;;;;;;4944883;28;20027;-92
2023/04/09 12:34:16;;;;;;;22.73;20.83;;;18.40;99.90;;;;;;4944918;28;20481;-83
2023/04/09 12:36:42;;;;;;;19.25;18.15;;;18.10;99.90;;;;;;4940857;29;20020;-82
2023/04/09 12:39:09;;;;;;;22.55;20.65;;;17.80;99.90;;;;;;4940413;29;20480;-82
2023/04/09 12:41:35;;;;;;;18.85;17.75;;;17.50;99.90;;;;;;4956747;28;20052;-82
2023/04/09 12:44:02;;;;;;;18.63;17.63;;;17.20;99.90;;;;;;4940113;29;20054;-82
2023/04/09 12:46:31;;;;;;;18.27;17.27;;;17.00;99.90;;;;;;4942078;28;20608;-83
2023/04/09 12:48:57;;;;;;;17.95;16.67;;;16.70;99.90;;;;;;4943956;28;20447;-84
2023/04/09 12:51:24;;;;;;;18.65;17.38;;;16.60;99.90;;;;;;4959843;28;20390;-85
2023/04/09 12:53:50;;;;;;;17.98;16.98;;;16.50;99.90;;;;;;4944403;28;20034;-83
2023/04/09 12:57:11;;;;;;;17.92;16.92;;;16.50;99.90;;;;;;4965488;28;20061;-92
2023/04/09 12:59:34;;;;;;;18.48;17.38;;;16.50;99.90;;;;;;4867560;29;20158;-88
2023/04/09 13:02:04;;;;;;;17.85;16.95;;;16.50;99.90;;;;;;4880623;29;20125;-90
2023/04/09 13:07:14;;;;;;;18.08;16.90;;;16.80;99.90;;;;;;4944555;29;20115;-80
2023/04/09 13:09:50;;;;;;;18.17;16.98;;;17.30;99.90;;;;;;4935470;29;20042;-80